Time;durP1;ratioP1;P1;durP2;ratioP2;P2;SDS_P1;SDS_P2;PMS_P1;PMS_P2;Temp;Humidity;BMP_temperature;BMP_pressure;BME280_temperature;BME280_humidity;BME280_pressure;Samples;Min_cycle;Max_cycle;Signal;HPM_P1;HPM_P2
2023/05/14 00:00:54;;;;;;;142.30;69.80;;;14.90;99.90;;;;;;7287256;19;20266;-91
2023/05/14 00:03:20;;;;;;;142.70;70.80;;;15.00;99.90;;;;;;7306334;19;20192;-91
2023/05/14 00:05:47;;;;;;;151.80;71.03;;;15.10;99.90;;;;;;7298876;19;20174;-91
2023/05/14 00:08:13;;;;;;;139.53;68.23;;;15.20;99.90;;;;;;7287060;19;20221;-91
2023/05/14 00:10:39;;;;;;;145.07;69.73;;;15.20;99.90;;;;;;7295058;19;20188;-91
2023/05/14 00:13:04;;;;;;;150.03;69.90;;;15.20;99.90;;;;;;7296016;19;20220;-91
2023/05/14 00:15:30;;;;;;;145.60;69.20;;;15.20;99.90;;;;;;7295366;19;20188;-91
2023/05/14 00:17:56;;;;;;;156.93;72.83;;;15.00;99.90;;;;;;7296360;19;20191;-91
2023/05/14 00:20:22;;;;;;;148.83;71.60;;;15.00;99.90;;;;;;7294001;19;20660;-91
2023/05/14 00:22:48;;;;;;;144.53;71.30;;;15.10;99.90;;;;;;7316992;19;20658;-92
2023/05/14 00:25:14;;;;;;;159.33;73.27;;;15.20;99.90;;;;;;7294951;19;20231;-91
2023/05/14 00:27:39;;;;;;;147.97;72.40;;;15.30;99.90;;;;;;7296103;19;20180;-91
2023/05/14 00:30:06;;;;;;;152.83;72.27;;;15.20;99.90;;;;;;7296211;19;20183;-91
2023/05/14 00:32:32;;;;;;;157.77;74.07;;;15.30;99.90;;;;;;7295208;19;20262;-90
2023/05/14 00:34:58;;;;;;;150.67;72.43;;;15.20;99.90;;;;;;7295169;19;20195;-92
2023/05/14 00:37:24;;;;;;;144.43;68.93;;;15.10;99.90;;;;;;7294687;19;20193;-91
2023/05/14 00:39:50;;;;;;;147.77;71.10;;;14.90;99.90;;;;;;7312655;19;20187;-91
2023/05/14 00:42:16;;;;;;;146.20;69.80;;;14.70;99.90;;;;;;7306737;19;20199;-92
2023/05/14 00:44:42;;;;;;;156.30;72.70;;;14.80;99.90;;;;;;7295985;19;20200;-92
2023/05/14 00:47:07;;;;;;;159.50;75.40;;;14.90;99.90;;;;;;7295029;19;20195;-92
2023/05/14 00:49:34;;;;;;;162.00;73.57;;;15.10;99.90;;;;;;7295611;19;20209;-91
2023/05/14 00:52:00;;;;;;;154.83;73.17;;;15.20;99.90;;;;;;7295996;19;20186;-92
2023/05/14 00:54:28;;;;;;;162.47;73.90;;;15.20;99.90;;;;;;7295464;19;20214;-91
2023/05/14 00:56:54;;;;;;;147.37;73.77;;;15.20;99.90;;;;;;7293908;19;20196;-91
2023/05/14 00:59:20;;;;;;;158.60;75.07;;;15.30;99.90;;;;;;7309848;19;20205;-92
2023/05/14 01:01:46;;;;;;;151.43;71.77;;;15.30;99.90;;;;;;7308146;19;20659;-91
2023/05/14 01:04:12;;;;;;;152.17;74.10;;;15.20;99.90;;;;;;7294015;19;20213;-91
2023/05/14 01:07:13;;;;;;;159.40;73.13;;;15.20;99.90;;;;;;7293355;19;20189;-92
2023/05/14 01:09:48;;;;;;;158.80;73.40;;;15.10;99.90;;;;;;7191348;19;2004617;-91
2023/05/14 01:12:43;;;;;;;148.73;71.57;;;14.90;99.90;;;;;;7293344;19;20666;-92
2023/05/14 01:15:17;;;;;;;155.07;72.37;;;14.80;99.90;;;;;;7191735;19;2004391;-91
2023/05/14 01:17:53;;;;;;;152.57;71.07;;;14.80;99.90;;;;;;7293696;19;20186;-91
2023/05/14 01:20:20;;;;;;;148.70;68.90;;;14.40;99.90;;;;;;7291545;19;20183;-92
2023/05/14 01:22:47;;;;;;;151.37;70.10;;;14.30;99.90;;;;;;7292780;19;20187;-91
2023/05/14 01:25:12;;;;;;;147.97;69.70;;;14.50;99.90;;;;;;7293185;19;20265;-91
2023/05/14 01:28:01;;;;;;;143.77;68.40;;;14.50;99.90;;;;;;7292062;19;20197;-91
2023/05/14 01:30:39;;;;;;;138.77;65.43;;;14.70;99.90;;;;;;7190702;19;2004676;-92
2023/05/14 01:33:09;;;;;;;146.63;67.53;;;14.80;99.90;;;;;;7301178;19;20197;-91
2023/05/14 01:35:36;;;;;;;145.50;68.40;;;14.70;99.90;;;;;;7295033;19;20187;-92
2023/05/14 01:38:05;;;;;;;146.33;68.57;;;14.50;99.90;;;;;;7298024;19;20772;-92
2023/05/14 01:40:32;;;;;;;158.70;68.87;;;14.40;99.90;;;;;;7316317;19;20206;-90
2023/05/14 01:43:00;;;;;;;140.43;68.53;;;14.40;99.90;;;;;;7295947;19;20196;-92
2023/05/14 01:45:26;;;;;;;144.33;68.47;;;14.60;99.90;;;;;;7295654;19;20191;-92
2023/05/14 01:47:52;;;;;;;146.00;68.13;;;14.50;99.90;;;;;;7298316;19;20215;-92
2023/05/14 01:50:18;;;;;;;158.53;69.00;;;14.60;99.90;;;;;;7316773;19;20196;-92
2023/05/14 01:52:44;;;;;;;145.70;67.50;;;14.70;99.90;;;;;;7291918;19;20615;-91
2023/05/14 01:55:10;;;;;;;142.70;67.27;;;14.80;99.90;;;;;;7293817;19;20364;-92
2023/05/14 01:57:36;;;;;;;153.97;69.27;;;14.90;99.90;;;;;;7296244;19;20223;-93
2023/05/14 02:00:03;;;;;;;145.53;67.70;;;15.00;99.90;;;;;;7292391;19;20188;-93
2023/05/14 02:02:39;;;;;;;149.40;65.83;;;15.10;99.90;;;;;;7291960;19;20650;-92
2023/05/14 02:05:08;;;;;;;149.93;67.17;;;15.10;99.90;;;;;;7292440;19;20195;-92
2023/05/14 02:07:33;;;;;;;146.87;67.87;;;15.20;99.90;;;;;;7292408;19;20180;-92
2023/05/14 02:09:59;;;;;;;146.13;66.23;;;15.20;99.90;;;;;;7293143;19;20612;-92
2023/05/14 02:12:27;;;;;;;157.10;70.50;;;15.20;99.90;;;;;;7292043;19;20291;-92
2023/05/14 02:14:53;;;;;;;143.97;66.27;;;15.20;99.90;;;;;;7291875;19;20211;-93
2023/05/14 02:17:19;;;;;;;140.70;64.77;;;15.20;99.90;;;;;;7314128;19;20191;-92
2023/05/14 02:19:45;;;;;;;139.87;64.63;;;15.10;99.90;;;;;;7291317;19;20189;-93
2023/05/14 02:22:11;;;;;;;125.20;61.00;;;15.00;99.90;;;;;;7289867;19;20290;-92
2023/05/14 02:24:37;;;;;;;131.27;62.90;;;14.90;99.90;;;;;;7293280;19;20203;-92
2023/05/14 02:27:04;;;;;;;136.17;66.07;;;14.90;99.90;;;;;;7293100;19;20203;-92
2023/05/14 02:29:29;;;;;;;134.40;64.70;;;15.10;99.90;;;;;;7299829;19;20215;-92
2023/05/14 02:31:56;;;;;;;137.73;63.63;;;15.20;99.90;;;;;;7315610;19;20188;-93
2023/05/14 02:34:22;;;;;;;135.87;63.40;;;15.20;99.90;;;;;;7321902;19;20185;-92
2023/05/14 02:36:49;;;;;;;136.43;64.40;;;15.00;99.90;;;;;;7334946;19;20199;-92
2023/05/14 02:39:15;;;;;;;136.37;63.27;;;15.00;99.90;;;;;;7308560;19;20187;-92
2023/05/14 02:41:43;;;;;;;142.47;63.60;;;15.10;99.90;;;;;;7303417;19;20187;-93
2023/05/14 02:44:09;;;;;;;128.87;62.47;;;15.00;99.90;;;;;;7302404;19;20191;-90
2023/05/14 02:46:35;;;;;;;126.70;60.37;;;15.00;99.90;;;;;;7293555;19;20539;-92
2023/05/14 02:49:02;;;;;;;136.73;62.13;;;14.80;99.90;;;;;;7293632;19;20192;-92
2023/05/14 02:51:27;;;;;;;123.40;59.93;;;14.90;99.90;;;;;;7293054;19;20209;-93
2023/05/14 02:53:56;;;;;;;125.90;59.50;;;14.90;99.90;;;;;;7291842;19;20194;-94
2023/05/14 02:56:22;;;;;;;127.33;62.23;;;15.00;99.90;;;;;;7293069;19;20179;-92
2023/05/14 02:58:48;;;;;;;124.60;59.97;;;15.10;99.90;;;;;;7313644;19;20535;-93
2023/05/14 03:01:14;;;;;;;122.07;58.60;;;15.00;99.90;;;;;;7291585;19;20296;-92
2023/05/14 03:03:40;;;;;;;129.63;60.23;;;15.00;99.90;;;;;;7290765;19;20196;-91
2023/05/14 03:06:06;;;;;;;128.57;60.03;;;15.00;99.90;;;;;;7290106;19;20272;-92
2023/05/14 03:08:32;;;;;;;121.57;58.03;;;14.90;99.90;;;;;;7289857;19;20201;-92
2023/05/14 03:10:58;;;;;;;131.00;60.80;;;15.00;99.90;;;;;;7290569;19;20180;-92
2023/05/14 03:13:24;;;;;;;120.60;58.07;;;15.00;99.90;;;;;;7289962;19;20185;-92
2023/05/14 03:15:53;;;;;;;125.43;58.93;;;15.00;99.90;;;;;;7312079;19;20188;-93
2023/05/14 03:18:19;;;;;;;121.90;58.73;;;15.00;99.90;;;;;;7290507;19;20181;-92
2023/05/14 03:20:45;;;;;;;129.23;59.50;;;15.00;99.90;;;;;;7289077;19;20188;-93
2023/05/14 03:23:11;;;;;;;123.17;57.80;;;15.00;99.90;;;;;;7290510;19;20649;-92
2023/05/14 03:25:37;;;;;;;124.17;59.93;;;14.90;99.90;;;;;;7289031;19;20192;-93
2023/05/14 03:28:03;;;;;;;123.03;55.83;;;14.90;99.90;;;;;;7287972;19;20195;-93
2023/05/14 03:30:29;;;;;;;118.20;58.13;;;14.70;99.90;;;;;;7289124;19;20192;-93
2023/05/14 03:32:55;;;;;;;119.03;56.70;;;14.60;99.90;;;;;;7287005;19;20561;-92
2023/05/14 03:35:21;;;;;;;124.83;57.60;;;14.70;99.90;;;;;;7300966;19;20185;-92
2023/05/14 03:37:47;;;;;;;117.87;57.90;;;14.70;99.90;;;;;;7307831;19;20254;-92
2023/05/14 03:40:13;;;;;;;114.63;57.53;;;14.70;99.90;;;;;;7287634;19;20195;-92
2023/05/14 03:42:39;;;;;;;121.37;58.30;;;14.80;99.90;;;;;;7291182;19;20185;-91
2023/05/14 03:45:05;;;;;;;123.80;57.70;;;14.90;99.90;;;;;;7294125;19;20188;-92
2023/05/14 03:47:31;;;;;;;118.70;57.67;;;15.00;99.90;;;;;;7294644;19;20189;-92
2023/05/14 03:49:59;;;;;;;123.70;55.73;;;14.70;99.90;;;;;;7295986;19;20202;-92
2023/05/14 03:52:25;;;;;;;119.93;55.73;;;14.80;99.90;;;;;;7296153;19;20184;-94
2023/05/14 03:54:51;;;;;;;117.63;57.07;;;14.80;99.90;;;;;;7309872;19;20594;-92
2023/05/14 03:57:17;;;;;;;116.63;56.23;;;14.90;99.90;;;;;;7313762;19;20210;-92
2023/05/14 03:59:43;;;;;;;117.77;56.07;;;15.10;99.90;;;;;;7295283;19;20187;-93
2023/05/14 04:02:08;;;;;;;121.87;56.80;;;15.00;99.90;;;;;;7294591;19;20195;-92
2023/05/14 04:04:34;;;;;;;116.73;54.13;;;15.10;99.90;;;;;;7298421;19;20192;-92
2023/05/14 04:07:01;;;;;;;114.80;54.57;;;15.00;99.90;;;;;;7295497;19;20192;-92
2023/05/14 04:09:28;;;;;;;108.87;54.77;;;14.80;99.90;;;;;;7295120;19;20191;-93
2023/05/14 04:11:53;;;;;;;109.37;54.77;;;14.90;99.90;;;;;;7296038;19;20184;-92
2023/05/14 04:14:20;;;;;;;115.90;56.80;;;14.80;99.90;;;;;;7317897;19;20185;-92
2023/05/14 04:16:47;;;;;;;115.77;55.00;;;14.90;99.90;;;;;;7297236;19;20181;-93
2023/05/14 04:19:12;;;;;;;111.10;55.43;;;15.10;99.90;;;;;;7294317;19;20651;-92
2023/05/14 04:21:40;;;;;;;113.13;55.20;;;15.20;99.90;;;;;;7295365;19;20203;-93
2023/05/14 04:24:06;;;;;;;118.03;55.47;;;15.20;99.90;;;;;;7294087;19;20252;-93
2023/05/14 04:26:32;;;;;;;110.57;55.53;;;15.30;99.90;;;;;;7296981;19;20198;-92
2023/05/14 04:29:01;;;;;;;120.23;56.07;;;15.30;99.90;;;;;;7296756;19;20196;-93
2023/05/14 04:31:28;;;;;;;117.87;58.23;;;15.30;99.90;;;;;;7298013;19;20183;-93
2023/05/14 04:33:54;;;;;;;116.10;57.33;;;15.30;99.90;;;;;;7296966;19;20203;-92
2023/05/14 04:36:19;;;;;;;110.73;55.53;;;15.30;99.90;;;;;;7320516;19;20710;-92
2023/05/14 04:38:45;;;;;;;109.83;55.00;;;15.20;99.90;;;;;;7293890;19;20184;-92
2023/05/14 04:41:11;;;;;;;113.43;56.80;;;15.20;99.90;;;;;;7294857;19;20724;-93
2023/05/14 04:43:38;;;;;;;107.77;55.73;;;15.30;99.90;;;;;;7295234;19;20191;-93
2023/05/14 04:46:04;;;;;;;110.97;54.73;;;15.20;99.90;;;;;;7295778;19;20190;-93
2023/05/14 04:48:30;;;;;;;106.53;54.47;;;15.30;99.90;;;;;;7296623;19;20183;-92
2023/05/14 04:50:56;;;;;;;108.73;55.73;;;15.30;99.90;;;;;;7290225;19;20195;-91
2023/05/14 04:53:22;;;;;;;111.10;55.30;;;15.30;99.90;;;;;;7297779;19;20194;-92
2023/05/14 04:55:48;;;;;;;115.30;54.73;;;15.20;99.90;;;;;;7313407;19;20669;-92
2023/05/14 04:58:13;;;;;;;106.93;55.53;;;15.20;99.90;;;;;;7291345;19;20708;-91
2023/05/14 05:00:40;;;;;;;106.77;54.20;;;15.10;99.90;;;;;;7291627;19;20198;-91
2023/05/14 05:03:06;;;;;;;106.77;55.80;;;15.00;99.90;;;;;;7291470;19;20198;-91
2023/05/14 05:05:32;;;;;;;109.30;54.90;;;15.00;99.90;;;;;;7291711;19;20208;-91
2023/05/14 05:07:58;;;;;;;108.50;54.37;;;15.00;99.90;;;;;;7291455;19;20191;-91
2023/05/14 05:10:24;;;;;;;99.40;52.77;;;14.90;99.90;;;;;;7292017;19;20229;-91
2023/05/14 05:12:49;;;;;;;99.93;53.53;;;15.00;99.90;;;;;;7312570;19;20179;-91
2023/05/14 05:15:15;;;;;;;102.17;52.43;;;15.10;99.90;;;;;;7291463;19;20255;-91
2023/05/14 05:17:41;;;;;;;105.67;52.10;;;15.10;99.90;;;;;;7292170;19;20205;-91
2023/05/14 05:20:08;;;;;;;95.87;51.93;;;15.10;99.90;;;;;;7291747;19;20183;-91
2023/05/14 05:22:35;;;;;;;96.80;50.73;;;15.10;99.90;;;;;;7290687;19;20208;-90
2023/05/14 05:25:05;;;;;;;95.43;49.83;;;15.00;99.90;;;;;;7292056;19;20186;-91
2023/05/14 05:27:32;;;;;;;88.80;48.90;;;15.10;99.90;;;;;;7291346;19;20519;-91
2023/05/14 05:30:00;;;;;;;88.80;47.60;;;15.10;99.90;;;;;;7290215;19;20613;-91
2023/05/14 05:32:26;;;;;;;86.17;48.70;;;15.10;99.90;;;;;;7290894;19;20196;-91
2023/05/14 05:34:52;;;;;;;90.23;48.93;;;15.10;99.90;;;;;;7301399;19;20194;-92
2023/05/14 05:37:17;;;;;;;93.40;49.67;;;14.90;99.90;;;;;;7312305;19;20195;-91
2023/05/14 05:39:43;;;;;;;90.30;47.73;;;14.90;99.90;;;;;;7289077;19;20278;-92
2023/05/14 05:42:09;;;;;;;87.27;49.00;;;15.10;99.90;;;;;;7289439;19;20225;-91
2023/05/14 05:44:36;;;;;;;96.93;50.50;;;14.90;99.90;;;;;;7290703;19;20192;-91
2023/05/14 05:47:02;;;;;;;90.30;48.57;;;15.00;99.90;;;;;;7290473;19;20188;-92
2023/05/14 05:49:28;;;;;;;89.57;46.73;;;14.90;99.90;;;;;;7291314;19;20267;-92
2023/05/14 05:51:54;;;;;;;89.07;48.17;;;14.90;99.90;;;;;;7292838;19;20182;-92
2023/05/14 05:54:21;;;;;;;87.17;47.37;;;14.90;99.90;;;;;;7311359;19;20189;-92
2023/05/14 05:56:47;;;;;;;84.43;46.10;;;14.90;99.90;;;;;;7290714;19;20215;-91
2023/05/14 05:59:13;;;;;;;94.73;49.93;;;14.80;99.90;;;;;;7289874;19;20186;-91
2023/05/14 06:01:40;;;;;;;98.70;51.17;;;14.90;99.90;;;;;;7289740;19;20192;-91
2023/05/14 06:04:05;;;;;;;96.53;50.93;;;15.00;99.90;;;;;;7289070;19;20197;-91
2023/05/14 06:06:31;;;;;;;100.30;51.87;;;15.20;99.90;;;;;;7288479;19;20207;-91
2023/05/14 06:08:57;;;;;;;104.33;52.87;;;15.40;99.90;;;;;;7289187;19;20275;-91
2023/05/14 06:11:23;;;;;;;108.53;54.93;;;15.50;99.90;;;;;;7288437;19;20206;-91
2023/05/14 06:13:49;;;;;;;105.20;52.27;;;15.50;99.90;;;;;;7310206;19;20192;-91
2023/05/14 06:16:15;;;;;;;103.43;52.17;;;15.60;99.90;;;;;;7289521;19;20655;-91
2023/05/14 06:18:41;;;;;;;101.20;51.20;;;15.40;99.90;;;;;;7289781;19;20207;-91
2023/05/14 06:21:07;;;;;;;95.47;50.23;;;15.40;99.90;;;;;;7289865;19;20188;-91
2023/05/14 06:23:33;;;;;;;98.67;49.43;;;15.20;99.90;;;;;;7289249;19;20194;-91
2023/05/14 06:26:07;;;;;;;94.47;48.90;;;14.90;99.90;;;;;;7288530;19;20183;-91
2023/05/14 06:28:33;;;;;;;89.53;46.10;;;14.90;99.90;;;;;;7289139;19;20198;-89
2023/05/14 06:30:59;;;;;;;90.10;47.37;;;15.00;99.90;;;;;;7287303;19;20198;-91
2023/05/14 06:33:29;;;;;;;81.37;45.53;;;14.90;99.90;;;;;;7289075;19;20187;-91
2023/05/14 06:35:57;;;;;;;77.10;43.73;;;15.00;99.90;;;;;;7287689;19;20212;-91
2023/05/14 06:38:23;;;;;;;86.40;45.70;;;15.00;99.90;;;;;;7288649;19;20588;-91
2023/05/14 06:40:55;;;;;;;84.27;45.60;;;15.00;99.90;;;;;;7310605;19;20183;-92
2023/05/14 06:43:21;;;;;;;84.07;45.43;;;15.00;99.90;;;;;;7305821;19;20188;-90
2023/05/14 06:45:50;;;;;;;80.63;43.27;;;15.30;99.90;;;;;;7302701;19;20227;-91
2023/05/14 06:48:22;;;;;;;80.40;46.27;;;14.90;99.90;;;;;;7289393;19;20184;-92
2023/05/14 06:50:49;;;;;;;79.10;43.87;;;14.80;99.90;;;;;;7288172;19;20188;-91
2023/05/14 06:53:15;;;;;;;84.07;45.40;;;14.80;99.90;;;;;;7287579;19;20269;-91
2023/05/14 06:55:41;;;;;;;81.47;41.90;;;14.70;99.90;;;;;;7288074;19;20196;-92
2023/05/14 06:58:07;;;;;;;81.83;42.87;;;14.90;99.90;;;;;;7288864;19;20538;-91
2023/05/14 07:00:36;;;;;;;77.17;41.70;;;14.90;99.90;;;;;;7286086;19;20183;-91
2023/05/14 07:03:02;;;;;;;84.57;43.03;;;14.90;99.90;;;;;;7287181;19;20643;-90
2023/05/14 07:05:28;;;;;;;82.30;41.80;;;14.70;99.90;;;;;;7285469;19;20357;-93
2023/05/14 07:07:54;;;;;;;77.23;41.40;;;14.70;99.90;;;;;;7286239;19;20185;-92
2023/05/14 07:10:20;;;;;;;87.93;43.17;;;14.90;99.90;;;;;;7309398;19;20192;-92
2023/05/14 07:12:46;;;;;;;88.43;43.83;;;14.70;99.90;;;;;;7285938;19;20645;-93
2023/05/14 07:15:12;;;;;;;96.50;48.23;;;14.60;99.90;;;;;;7286697;19;20727;-93
2023/05/14 07:17:38;;;;;;;104.83;50.13;;;14.60;99.90;;;;;;7287338;19;20187;-92
2023/05/14 07:20:04;;;;;;;100.70;50.60;;;14.80;99.90;;;;;;7283834;19;20222;-92
2023/05/14 07:22:30;;;;;;;99.73;50.97;;;14.90;99.90;;;;;;7287962;19;20202;-92
2023/05/14 07:25:21;;;;;;;99.07;50.80;;;14.90;99.90;;;;;;7287231;19;20182;-91
2023/05/14 07:27:47;;;;;;;106.30;52.00;;;14.90;99.90;;;;;;7288838;19;20254;-92
2023/05/14 07:30:14;;;;;;;105.23;52.87;;;15.10;99.90;;;;;;7287948;19;20229;-93
2023/05/14 07:32:45;;;;;;;102.30;51.50;;;15.30;99.90;;;;;;7290325;19;20194;-92
2023/05/14 07:35:12;;;;;;;103.47;51.07;;;15.50;99.90;;;;;;7294207;19;20191;-92
2023/05/14 07:37:41;;;;;;;102.93;50.90;;;15.50;99.90;;;;;;7314496;19;20195;-90
2023/05/14 07:40:08;;;;;;;94.47;48.90;;;15.40;99.90;;;;;;7313376;19;20192;-91
2023/05/14 07:42:34;;;;;;;98.40;50.00;;;15.60;99.90;;;;;;7309138;19;20222;-92
2023/05/14 07:45:00;;;;;;;87.00;47.13;;;15.70;99.90;;;;;;7308933;19;20267;-93
2023/05/14 07:47:26;;;;;;;91.67;48.17;;;15.90;99.90;;;;;;7303916;19;20195;-93
2023/05/14 07:49:55;;;;;;;89.03;47.47;;;15.90;99.90;;;;;;7303625;19;20203;-93
2023/05/14 07:52:22;;;;;;;86.27;45.63;;;15.80;99.90;;;;;;7309825;19;20263;-92
2023/05/14 07:54:49;;;;;;;82.23;46.77;;;15.90;99.90;;;;;;7306538;19;20191;-92
2023/05/14 07:57:25;;;;;;;79.17;46.27;;;16.00;99.90;;;;;;7287687;19;20209;-92
2023/05/14 07:59:51;;;;;;;80.23;44.50;;;16.10;99.90;;;;;;7292259;19;20198;-92
2023/05/14 08:02:16;;;;;;;79.30;45.50;;;16.40;99.90;;;;;;7291745;19;20196;-92
2023/05/14 08:04:42;;;;;;;86.93;48.37;;;16.20;99.90;;;;;;7288495;19;20190;-92
2023/05/14 08:07:08;;;;;;;81.43;44.83;;;16.20;99.90;;;;;;7288071;19;20203;-91
2023/05/14 08:09:34;;;;;;;84.87;46.13;;;16.10;99.90;;;;;;7288513;19;20188;-91
2023/05/14 08:12:00;;;;;;;80.37;45.43;;;16.20;99.90;;;;;;7285669;19;20196;-93
2023/05/14 08:14:26;;;;;;;80.00;45.73;;;16.40;99.90;;;;;;7285106;19;20527;-93
2023/05/14 08:16:52;;;;;;;77.53;45.23;;;16.50;99.90;;;;;;7298527;19;20655;-92
2023/05/14 08:19:18;;;;;;;89.63;49.60;;;16.70;99.90;;;;;;7311457;19;20185;-91
2023/05/14 08:21:45;;;;;;;82.33;47.70;;;16.50;99.90;;;;;;7286085;19;20258;-91
2023/05/14 08:24:11;;;;;;;79.67;46.47;;;16.60;99.90;;;;;;7285695;19;20294;-90
2023/05/14 08:26:39;;;;;;;77.33;46.60;;;16.60;99.90;;;;;;7285423;19;20195;-90
2023/05/14 08:29:06;;;;;;;75.43;45.50;;;16.60;99.90;;;;;;7286231;19;20197;-91
2023/05/14 08:31:31;;;;;;;89.97;49.80;;;16.60;99.90;;;;;;7293419;19;20199;-91
2023/05/14 08:33:57;;;;;;;88.20;50.00;;;16.60;99.90;;;;;;7312139;19;20206;-91
2023/05/14 08:36:23;;;;;;;68.80;42.73;;;16.90;99.90;;;;;;7313933;19;20185;-90
2023/05/14 08:38:52;;;;;;;70.77;42.60;;;17.10;99.90;;;;;;7334703;19;21386;-90
2023/05/14 08:41:20;;;;;;;66.27;39.73;;;17.20;99.90;;;;;;7304948;19;20246;-90
2023/05/14 08:44:01;;;;;;;68.50;41.00;;;17.20;99.90;;;;;;7292190;19;20189;-91
2023/05/14 08:46:29;;;;;;;60.63;38.30;;;17.10;99.90;;;;;;7187390;19;2004426;-92
2023/05/14 08:49:40;;;;;;;58.53;36.77;;;17.40;99.90;;;;;;7293899;19;20209;-92
2023/05/14 08:52:09;;;;;;;52.43;34.13;;;17.80;99.90;;;;;;7189941;19;2004545;-90
2023/05/14 08:54:35;;;;;;;53.37;33.60;;;17.80;99.90;;;;;;7290655;19;20254;-91
2023/05/14 08:57:05;;;;;;;55.23;34.33;;;17.90;99.90;;;;;;7292228;19;20206;-91
2023/05/14 08:59:30;;;;;;;51.67;34.10;;;18.10;99.90;;;;;;7291467;19;20188;-92
2023/05/14 09:02:01;;;;;;;50.03;31.07;;;18.00;99.90;;;;;;7292491;19;20703;-91
2023/05/14 09:04:40;;;;;;;50.67;33.23;;;18.00;99.90;;;;;;7292236;19;20193;-90
2023/05/14 09:07:10;;;;;;;48.13;31.13;;;18.10;99.90;;;;;;7293509;19;20207;-92
2023/05/14 09:09:37;;;;;;;46.60;30.87;;;18.70;99.90;;;;;;7292137;19;20189;-91
2023/05/14 09:12:03;;;;;;;47.13;31.50;;;18.50;99.90;;;;;;7292079;19;20185;-92
2023/05/14 09:14:29;;;;;;;45.00;30.20;;;18.50;99.90;;;;;;7290172;19;20184;-92
2023/05/14 09:16:55;;;;;;;49.40;29.60;;;18.90;99.90;;;;;;7289374;19;20192;-91
2023/05/14 09:19:22;;;;;;;45.93;31.40;;;18.70;99.90;;;;;;7309315;19;20195;-90
2023/05/14 09:21:48;;;;;;;51.13;32.37;;;18.60;99.90;;;;;;7305784;19;20193;-91
2023/05/14 09:24:22;;;;;;;42.63;29.80;;;18.70;99.90;;;;;;7291512;19;20185;-92
2023/05/14 09:26:50;;;;;;;43.27;30.73;;;18.70;99.90;;;;;;7295061;19;20192;-92
2023/05/14 09:29:16;;;;;;;45.90;29.40;;;18.70;99.90;;;;;;7295508;19;20184;-91
2023/05/14 09:31:42;;;;;;;47.33;30.57;;;19.10;99.90;;;;;;7297676;19;20242;-92
2023/05/14 09:34:08;;;;;;;43.23;28.87;;;19.70;99.90;;;;;;7296446;19;20228;-90
2023/05/14 09:36:34;;;;;;;46.13;29.57;;;20.20;99.90;;;;;;7297093;19;20193;-92
2023/05/14 09:39:02;;;;;;;43.63;29.97;;;20.20;99.90;;;;;;7296912;19;20193;-91
2023/05/14 09:41:28;;;;;;;41.13;28.93;;;20.70;99.90;;;;;;7292569;19;20208;-91
2023/05/14 09:43:55;;;;;;;37.50;26.47;;;21.30;99.90;;;;;;7294065;19;20662;-91
2023/05/14 09:46:22;;;;;;;37.33;26.50;;;22.30;99.90;;;;;;7317555;19;20193;-90
2023/05/14 09:48:48;;;;;;;38.13;28.20;;;23.00;99.90;;;;;;7292816;19;20198;-91
2023/05/14 09:51:16;;;;;;;39.43;27.70;;;22.60;99.90;;;;;;7290912;19;20191;-90
2023/05/14 09:53:43;;;;;;;36.00;26.33;;;22.20;99.90;;;;;;7291359;19;20265;-90
2023/05/14 09:56:09;;;;;;;37.80;26.37;;;21.10;99.90;;;;;;7290278;19;20248;-90
2023/05/14 09:58:35;;;;;;;37.57;26.73;;;20.90;99.90;;;;;;7289691;19;20553;-91
2023/05/14 10:01:01;;;;;;;36.87;26.43;;;21.30;99.90;;;;;;7288440;19;20204;-90
2023/05/14 10:03:29;;;;;;;38.63;26.50;;;21.60;99.90;;;;;;7290577;19;20284;-90
2023/05/14 10:06:00;;;;;;;37.63;26.17;;;21.80;99.90;;;;;;7289241;19;20192;-90
2023/05/14 10:08:36;;;;;;;34.60;25.97;;;22.40;99.90;;;;;;7288998;19;20191;-91
2023/05/14 10:11:07;;;;;;;34.57;26.33;;;23.90;99.90;;;;;;7292246;19;20742;-90
2023/05/14 10:13:45;;;;;;;31.90;24.87;;;24.00;99.90;;;;;;7289759;19;20192;-90
2023/05/14 10:16:19;;;;;;;32.70;25.07;;;23.90;99.90;;;;;;7297498;19;20244;-90
2023/05/14 10:18:50;;;;;;;36.67;25.90;;;23.50;99.90;;;;;;7292696;19;20209;-90
2023/05/14 10:21:19;;;;;;;36.30;26.07;;;23.50;99.90;;;;;;7289921;19;20189;-91
2023/05/14 10:23:46;;;;;;;33.97;23.73;;;23.90;99.90;;;;;;7289728;19;20177;-92
2023/05/14 10:26:12;;;;;;;30.13;23.00;;;24.70;99.90;;;;;;7289484;19;20636;-90
2023/05/14 10:28:38;;;;;;;30.83;24.17;;;26.20;99.90;;;;;;7288820;19;20213;-92
2023/05/14 10:31:04;;;;;;;32.05;24.10;;;26.50;99.90;;;;;;7290389;19;20193;-92
2023/05/14 10:33:49;;;;;;;31.27;24.35;;;26.10;99.90;;;;;;7290831;19;20181;-91
2023/05/14 10:36:19;;;;;;;31.17;23.27;;;25.70;99.90;;;;;;7290193;19;20555;-91
2023/05/14 10:38:46;;;;;;;31.67;22.15;;;25.90;99.90;;;;;;7288502;19;20188;-91
2023/05/14 10:41:16;;;;;;;29.60;21.40;;;26.90;99.90;;;;;;7288484;19;20232;-90
2023/05/14 10:43:43;;;;;;;27.35;21.00;;;26.90;99.90;;;;;;7288860;19;20257;-91
2023/05/14 10:46:11;;;;;;;30.75;21.33;;;28.20;99.90;;;;;;7288991;19;20192;-92
2023/05/14 10:48:40;;;;;;;28.13;20.80;;;28.00;99.90;;;;;;7290384;19;20185;-91
2023/05/14 10:51:09;;;;;;;25.42;20.20;;;27.80;99.90;;;;;;7290450;19;20193;-92
2023/05/14 10:53:37;;;;;;;26.20;18.90;;;27.80;99.90;;;;;;7287802;19;20189;-91
2023/05/14 10:56:04;;;;;;;26.80;19.75;;;27.50;99.90;;;;;;7289259;19;20184;-92
2023/05/14 10:58:32;;;;;;;25.98;19.42;;;28.70;99.90;;;;;;7288579;19;20549;-93
2023/05/14 11:01:00;;;;;;;27.15;21.20;;;30.30;99.90;;;;;;7288323;19;20305;-93
2023/05/14 11:03:32;;;;;;;29.13;22.58;;;30.40;99.90;;;;;;7287790;19;20189;-91
2023/05/14 11:06:02;;;;;;;29.08;22.52;;;30.80;99.80;;;;;;7289091;19;20173;-91
2023/05/14 11:08:29;;;;;;;25.77;20.55;;;30.60;99.50;;;;;;7288425;19;20196;-92
2023/05/14 11:10:56;;;;;;;29.48;21.77;;;30.40;98.80;;;;;;7287929;19;20173;-92
2023/05/14 11:13:22;;;;;;;28.55;21.27;;;30.80;96.70;;;;;;7306294;19;20180;-92
2023/05/14 11:15:48;;;;;;;28.55;21.92;;;29.90;97.40;;;;;;7304046;19;20202;-92
2023/05/14 11:18:26;;;;;;;27.23;20.77;;;29.50;98.10;;;;;;7289047;19;20185;-92
2023/05/14 11:20:52;;;;;;;27.77;21.23;;;28.50;98.90;;;;;;7279550;19;20176;-92
2023/05/14 11:23:21;;;;;;;30.95;22.63;;;28.80;99.30;;;;;;7308878;19;20292;-92
2023/05/14 11:25:47;;;;;;;26.40;21.35;;;29.20;98.10;;;;;;7289042;19;20173;-93
2023/05/14 11:28:13;;;;;;;24.92;20.17;;;29.20;97.70;;;;;;7288047;19;20184;-92
2023/05/14 11:30:39;;;;;;;28.77;21.40;;;29.80;99.30;;;;;;7287389;19;20184;-92
2023/05/14 11:33:05;;;;;;;26.15;20.63;;;30.40;97.30;;;;;;7287134;19;20184;-91
2023/05/14 11:35:31;;;;;;;25.67;21.98;;;31.50;97.00;;;;;;7285594;19;20205;-92
2023/05/14 11:37:57;;;;;;;29.10;22.67;;;30.80;96.10;;;;;;7287132;19;20185;-92
2023/05/14 11:40:22;;;;;;;30.10;22.08;;;30.20;97.00;;;;;;7296263;19;20185;-92
2023/05/14 11:42:52;;;;;;;25.63;21.05;;;29.30;96.40;;;;;;7309432;19;20389;-92
2023/05/14 11:45:26;;;;;;;29.02;21.92;;;29.00;97.20;;;;;;7286666;19;20189;-91
2023/05/14 11:47:55;;;;;;;25.15;20.85;;;29.30;96.70;;;;;;7285216;19;20173;-92
2023/05/14 11:50:22;;;;;;;30.42;22.15;;;29.70;98.10;;;;;;7308499;19;20181;-93
2023/05/14 11:52:49;;;;;;;25.13;20.13;;;29.70;97.10;;;;;;7288504;19;20526;-91
2023/05/14 11:55:16;;;;;;;24.92;20.23;;;30.30;95.60;;;;;;7285844;19;20176;-92
2023/05/14 11:57:42;;;;;;;26.55;19.48;;;31.30;95.00;;;;;;7288301;19;20980;-92
2023/05/14 12:00:20;;;;;;;25.30;19.70;;;31.50;91.80;;;;;;7286178;19;20194;-92
2023/05/14 12:02:50;;;;;;;26.27;19.55;;;31.10;94.50;;;;;;7286682;19;20184;-92
2023/05/14 12:05:16;;;;;;;23.60;18.70;;;31.10;93.20;;;;;;7288973;19;20184;-91
2023/05/14 12:07:45;;;;;;;22.77;20.02;;;30.60;93.50;;;;;;7292862;19;20197;-92
2023/05/14 12:10:12;;;;;;;26.70;19.27;;;29.90;93.50;;;;;;7293539;19;20214;-92
2023/05/14 12:12:38;;;;;;;23.00;17.95;;;29.40;94.40;;;;;;7294159;19;20667;-92
2023/05/14 12:15:12;;;;;;;19.98;16.00;;;29.00;94.60;;;;;;7293724;19;20184;-92
2023/05/14 12:17:38;;;;;;;25.42;18.65;;;28.20;96.30;;;;;;7294601;19;20193;-92
2023/05/14 12:20:09;;;;;;;26.27;19.85;;;27.60;98.30;;;;;;7295864;19;20185;-93
2023/05/14 12:22:35;;;;;;;26.50;19.35;;;26.30;99.40;;;;;;7292802;19;20189;-92
2023/05/14 12:25:01;;;;;;;27.88;21.10;;;25.90;99.90;;;;;;7294799;19;20213;-91